Time;durP1;ratioP1;P1;durP2;ratioP2;P2;SDS_P1;SDS_P2;PMS_P1;PMS_P2;Temp;Humidity;BMP_temperature;BMP_pressure;BME280_temperature;BME280_humidity;BME280_pressure;Samples;Min_cycle;Max_cycle;Signal;HPM_P1;HPM_P2
2023/08/15 00:01:40;;;;;;;3.97;2.20;;;21.00;66.60;;;;;;5014058;28;20171;-76
2023/08/15 00:04:06;;;;;;;3.80;2.17;;;21.00;66.60;;;;;;5031011;28;20056;-76
2023/08/15 00:06:31;;;;;;;3.53;2.45;;;21.00;66.70;;;;;;5031489;28;20036;-76
2023/08/15 00:08:59;;;;;;;5.25;3.17;;;21.00;66.70;;;;;;5031141;28;20033;-76
2023/08/15 00:11:25;;;;;;;3.25;2.22;;;21.00;66.80;;;;;;5031443;28;20045;-76
2023/08/15 00:13:55;;;;;;;4.15;2.53;;;20.90;66.70;;;;;;5031718;28;20040;-76
2023/08/15 00:16:23;;;;;;;4.30;3.08;;;20.90;66.70;;;;;;5028609;28;20104;-76
2023/08/15 00:18:49;;;;;;;5.88;2.80;;;20.90;66.80;;;;;;5029246;28;20041;-76
2023/08/15 00:21:14;;;;;;;7.68;4.22;;;20.90;67.40;;;;;;4997982;28;20159;-76
2023/08/15 00:23:40;;;;;;;7.40;4.63;;;20.80;67.10;;;;;;5029880;28;20091;-76
2023/08/15 00:26:06;;;;;;;6.55;3.10;;;20.80;67.30;;;;;;5018025;28;20396;-76
2023/08/15 00:28:31;;;;;;;3.80;2.45;;;20.80;67.30;;;;;;5020587;28;20106;-76
2023/08/15 00:30:57;;;;;;;6.15;2.78;;;20.80;67.30;;;;;;5037690;28;20128;-76
2023/08/15 00:33:23;;;;;;;4.68;2.53;;;20.70;67.30;;;;;;5037155;28;20099;-76
2023/08/15 00:35:48;;;;;;;4.45;2.65;;;20.80;67.40;;;;;;5021021;28;20037;-76
2023/08/15 00:38:14;;;;;;;5.50;2.85;;;20.80;67.50;;;;;;5020910;28;20091;-76
2023/08/15 00:40:40;;;;;;;4.30;3.47;;;20.70;67.50;;;;;;5037758;28;20043;-76
2023/08/15 00:43:06;;;;;;;4.50;3.45;;;20.70;67.60;;;;;;5037146;28;20033;-76
2023/08/15 00:45:37;;;;;;;8.18;3.60;;;20.70;67.70;;;;;;5017582;28;20045;-76
2023/08/15 00:48:04;;;;;;;3.67;2.60;;;20.70;67.70;;;;;;5008184;28;20049;-76
2023/08/15 00:50:30;;;;;;;4.63;2.83;;;20.60;67.60;;;;;;5029234;28;20056;-76
2023/08/15 00:52:56;;;;;;;3.95;3.03;;;20.60;67.70;;;;;;5011912;28;20025;-76
2023/08/15 00:55:22;;;;;;;4.13;2.85;;;20.60;67.80;;;;;;5023143;28;20076;-76
2023/08/15 00:57:48;;;;;;;3.92;2.90;;;20.60;67.90;;;;;;5017407;28;20037;-76
2023/08/15 01:00:15;;;;;;;6.50;3.80;;;20.60;67.80;;;;;;5017358;28;20588;-76
2023/08/15 01:02:42;;;;;;;4.78;3.00;;;20.60;67.80;;;;;;5000823;28;20484;-76
2023/08/15 01:05:07;;;;;;;5.55;3.65;;;20.60;67.80;;;;;;4999918;28;20053;-76
2023/08/15 01:07:34;;;;;;;6.57;4.30;;;20.60;67.90;;;;;;5001044;28;20126;-76
2023/08/15 01:09:59;;;;;;;7.88;5.03;;;20.60;67.90;;;;;;5016192;28;20042;-76
2023/08/15 01:12:35;;;;;;;6.20;3.70;;;20.60;67.80;;;;;;5016776;28;20048;-76
2023/08/15 01:15:29;;;;;;;7.80;4.22;;;20.60;67.80;;;;;;5031634;28;20033;-76
2023/08/15 01:18:06;;;;;;;10.45;6.72;;;20.60;67.90;;;;;;5020152;28;20037;-76
2023/08/15 01:20:34;;;;;;;12.60;8.45;;;20.60;68.00;;;;;;5036668;28;20044;-76
2023/08/15 01:23:03;;;;;;;12.30;8.73;;;20.50;68.00;;;;;;5036504;28;20036;-76
2023/08/15 01:25:32;;;;;;;12.30;8.73;;;20.50;68.20;;;;;;5020036;28;20492;-76
2023/08/15 01:27:58;;;;;;;11.70;9.00;;;20.50;68.20;;;;;;5032874;28;20053;-76
2023/08/15 01:30:24;;;;;;;9.90;7.57;;;20.40;68.40;;;;;;5016699;28;20128;-75
2023/08/15 01:33:25;;;;;;;13.73;9.70;;;20.40;68.60;;;;;;5016578;28;20477;-75
2023/08/15 01:35:58;;;;;;;14.32;8.65;;;20.30;68.80;;;;;;5000437;28;20057;-75
2023/08/15 01:38:39;;;;;;;13.48;9.32;;;20.30;69.20;;;;;;5013196;28;20038;-75
2023/08/15 01:41:08;;;;;;;15.45;10.50;;;20.20;69.50;;;;;;5014930;28;20061;-75
2023/08/15 01:43:36;;;;;;;12.30;9.13;;;20.20;69.80;;;;;;5016318;28;20048;-75
2023/08/15 01:46:03;;;;;;;16.67;10.15;;;20.20;70.20;;;;;;5016462;28;20095;-75
2023/08/15 01:48:28;;;;;;;11.13;9.57;;;20.10;70.60;;;;;;5016400;28;20042;-76
2023/08/15 01:50:54;;;;;;;11.25;9.32;;;20.10;71.00;;;;;;5032915;28;20543;-76
2023/08/15 01:53:20;;;;;;;15.20;10.80;;;20.00;71.20;;;;;;5032781;28;20450;-76
2023/08/15 01:55:46;;;;;;;11.60;8.95;;;20.00;71.50;;;;;;4999781;28;20033;-74
2023/08/15 01:58:11;;;;;;;13.00;9.75;;;20.00;71.70;;;;;;5016111;28;20048;-74
2023/08/15 02:00:37;;;;;;;12.20;8.77;;;20.00;72.00;;;;;;5015984;28;20492;-74
2023/08/15 02:03:03;;;;;;;8.00;5.68;;;20.00;72.00;;;;;;5031569;28;20041;-74
2023/08/15 02:05:29;;;;;;;8.95;6.82;;;20.00;71.90;;;;;;5032561;28;20076;-74
2023/08/15 02:07:54;;;;;;;5.78;4.72;;;20.00;71.70;;;;;;5015601;28;20559;-74
2023/08/15 02:10:20;;;;;;;6.93;5.25;;;20.00;71.50;;;;;;5032128;28;20089;-74
2023/08/15 02:12:46;;;;;;;7.60;5.22;;;20.00;71.30;;;;;;5031945;28;20045;-74
2023/08/15 02:15:12;;;;;;;11.00;8.00;;;20.00;71.10;;;;;;5015689;28;20038;-74
2023/08/15 02:17:37;;;;;;;8.38;6.40;;;20.00;71.50;;;;;;5032207;28;20045;-74
2023/08/15 02:20:03;;;;;;;7.05;5.25;;;20.00;71.80;;;;;;5032137;28;20050;-74
2023/08/15 02:22:31;;;;;;;7.82;5.65;;;20.00;71.70;;;;;;5015279;28;20046;-74
2023/08/15 02:24:57;;;;;;;7.40;4.97;;;20.00;71.60;;;;;;4998732;28;20240;-74
2023/08/15 02:27:22;;;;;;;7.22;4.70;;;20.00;71.60;;;;;;5034512;28;20388;-75
2023/08/15 02:29:50;;;;;;;6.93;5.25;;;20.00;71.60;;;;;;5035063;28;20055;-75
2023/08/15 02:32:17;;;;;;;10.55;8.85;;;20.10;72.00;;;;;;5018868;28;20049;-75
2023/08/15 02:34:43;;;;;;;7.60;6.07;;;20.00;71.70;;;;;;5035323;28;20052;-75
2023/08/15 02:37:09;;;;;;;10.15;8.35;;;20.00;71.80;;;;;;5035333;28;20037;-75
2023/08/15 02:39:34;;;;;;;8.10;5.35;;;20.10;71.90;;;;;;5019230;28;20131;-75
2023/08/15 02:42:00;;;;;;;11.40;6.70;;;20.10;71.80;;;;;;5035254;28;20049;-75
2023/08/15 02:44:26;;;;;;;9.25;6.35;;;20.10;71.60;;;;;;5018757;28;20068;-75
2023/08/15 02:46:55;;;;;;;7.63;5.93;;;20.10;71.50;;;;;;5002716;28;20040;-75
2023/08/15 02:49:20;;;;;;;9.20;7.80;;;20.10;71.50;;;;;;5018781;28;20066;-75
2023/08/15 02:51:46;;;;;;;8.95;7.25;;;20.10;71.80;;;;;;5035187;28;20125;-75
2023/08/15 02:54:12;;;;;;;6.28;4.75;;;20.10;72.00;;;;;;5034958;28;20029;-75
2023/08/15 02:56:37;;;;;;;8.35;5.53;;;20.10;71.80;;;;;;5018742;28;20480;-75
2023/08/15 02:59:03;;;;;;;6.22;4.60;;;20.10;71.70;;;;;;5034952;28;20083;-75
2023/08/15 03:01:29;;;;;;;10.82;8.95;;;20.10;71.60;;;;;;5035046;28;20041;-75
2023/08/15 03:03:54;;;;;;;9.82;6.38;;;20.10;72.00;;;;;;5034974;28;20086;-76
2023/08/15 03:06:20;;;;;;;9.98;5.80;;;20.10;72.20;;;;;;5018767;28;20044;-76
2023/08/15 03:08:47;;;;;;;11.55;9.90;;;20.10;72.20;;;;;;5018412;28;20491;-76
2023/08/15 03:11:12;;;;;;;12.65;9.02;;;20.10;72.70;;;;;;5018530;28;20037;-76
2023/08/15 03:13:38;;;;;;;8.50;6.40;;;20.10;73.00;;;;;;5034881;28;20044;-76
2023/08/15 03:16:04;;;;;;;7.90;6.13;;;20.10;73.00;;;;;;5018485;28;20041;-76
2023/08/15 03:18:30;;;;;;;6.25;4.80;;;20.10;72.90;;;;;;5018737;28;20045;-76
2023/08/15 03:21:03;;;;;;;8.48;6.05;;;20.10;72.80;;;;;;5018602;28;20484;-76
2023/08/15 03:23:29;;;;;;;6.65;5.85;;;20.10;72.70;;;;;;5019040;28;20313;-76
2023/08/15 03:25:54;;;;;;;5.72;4.53;;;20.10;72.80;;;;;;5002643;28;20068;-76
2023/08/15 03:28:20;;;;;;;10.18;7.53;;;20.10;72.50;;;;;;5034569;28;20481;-76
2023/08/15 03:30:46;;;;;;;7.35;5.70;;;20.10;72.70;;;;;;5002413;28;20095;-76
2023/08/15 03:33:11;;;;;;;7.78;5.43;;;20.10;72.70;;;;;;5034806;28;20043;-76
2023/08/15 03:35:46;;;;;;;5.20;4.60;;;20.20;72.70;;;;;;5021208;28;20420;-76
2023/08/15 03:38:20;;;;;;;4.85;4.35;;;20.20;72.50;;;;;;5038948;28;20443;-76
2023/08/15 03:40:47;;;;;;;7.07;4.82;;;20.20;72.50;;;;;;5038933;28;20389;-76
2023/08/15 03:43:13;;;;;;;6.40;5.15;;;20.20;72.40;;;;;;5038638;28;20087;-76
2023/08/15 03:45:40;;;;;;;5.00;3.78;;;20.20;72.60;;;;;;5038900;28;20036;-76
2023/08/15 03:48:07;;;;;;;6.03;3.92;;;20.20;72.30;;;;;;5005646;28;20033;-76
2023/08/15 03:50:37;;;;;;;5.28;4.00;;;20.20;71.80;;;;;;5022011;28;20066;-76
2023/08/15 03:53:03;;;;;;;5.75;4.65;;;20.20;71.60;;;;;;5021805;28;20102;-76
2023/08/15 03:55:29;;;;;;;5.93;4.47;;;20.20;71.50;;;;;;5021807;28;20128;-76
2023/08/15 03:57:55;;;;;;;7.38;4.30;;;20.20;71.50;;;;;;5038055;28;20041;-76
2023/08/15 04:00:21;;;;;;;7.32;4.38;;;20.20;71.40;;;;;;5038266;28;20040;-76
2023/08/15 04:02:47;;;;;;;6.18;4.43;;;20.20;71.20;;;;;;5038012;28;20044;-76
2023/08/15 04:05:13;;;;;;;6.40;3.83;;;20.20;71.20;;;;;;5038098;28;20045;-76
2023/08/15 04:07:39;;;;;;;5.07;4.13;;;20.20;71.20;;;;;;4988969;28;20037;-76
2023/08/15 04:10:06;;;;;;;6.05;5.45;;;20.30;71.20;;;;;;5037604;28;20032;-74
2023/08/15 04:12:33;;;;;;;9.18;6.60;;;20.30;71.20;;;;;;5037747;28;20041;-74
2023/08/15 04:15:02;;;;;;;10.20;6.47;;;20.20;71.50;;;;;;5037556;28;20080;-74
2023/08/15 04:17:27;;;;;;;8.95;5.70;;;20.30;72.10;;;;;;5020934;28;20043;-74
2023/08/15 04:19:53;;;;;;;8.20;5.38;;;20.20;72.10;;;;;;5021378;28;20041;-74
2023/08/15 04:22:19;;;;;;;6.15;4.72;;;20.20;72.20;;;;;;5037584;28;20427;-74
2023/08/15 04:24:45;;;;;;;9.00;5.88;;;20.20;72.10;;;;;;5037156;28;20049;-74
2023/08/15 04:27:10;;;;;;;5.43;4.20;;;20.20;72.20;;;;;;5037438;28;20048;-75
2023/08/15 04:29:36;;;;;;;8.15;4.47;;;20.20;72.00;;;;;;5004111;28;20071;-74
2023/08/15 04:32:02;;;;;;;7.93;6.00;;;20.20;71.80;;;;;;5020916;28;20492;-75
2023/08/15 04:34:28;;;;;;;7.57;4.55;;;20.20;71.80;;;;;;5001021;28;20041;-74
2023/08/15 04:36:54;;;;;;;7.50;4.38;;;20.20;71.90;;;;;;5001337;28;20124;-74
2023/08/15 04:39:21;;;;;;;4.43;3.75;;;20.20;71.70;;;;;;5017633;28;20542;-74
2023/08/15 04:41:47;;;;;;;6.45;4.15;;;20.20;71.50;;;;;;5017588;28;20068;-74
2023/08/15 04:44:13;;;;;;;7.63;4.72;;;20.20;71.50;;;;;;5013973;28;20123;-74
2023/08/15 04:46:38;;;;;;;5.82;3.50;;;20.20;71.50;;;;;;5019977;28;20625;-74
2023/08/15 04:49:04;;;;;;;7.47;4.60;;;20.20;71.50;;;;;;5037008;28;20044;-74
2023/08/15 04:51:30;;;;;;;7.95;4.60;;;20.20;71.40;;;;;;5004375;28;20037;-74
2023/08/15 04:53:56;;;;;;;7.15;4.45;;;20.20;71.40;;;;;;5020415;28;20372;-74
2023/08/15 04:56:22;;;;;;;7.45;4.30;;;20.20;71.50;;;;;;5020785;28;20048;-74
2023/08/15 04:58:48;;;;;;;7.30;3.63;;;20.20;71.60;;;;;;5036874;28;20044;-74
2023/08/15 05:01:14;;;;;;;7.60;4.38;;;20.10;71.40;;;;;;5037037;28;20037;-74
2023/08/15 05:03:40;;;;;;;4.93;3.35;;;20.10;71.60;;;;;;5036541;28;20495;-74
2023/08/15 05:06:05;;;;;;;5.82;3.95;;;20.20;71.60;;;;;;5020170;28;20459;-74
2023/08/15 05:08:31;;;;;;;5.80;3.03;;;20.10;71.50;;;;;;5036630;28;20084;-74
2023/08/15 05:10:57;;;;;;;4.13;3.00;;;20.10;71.40;;;;;;5036743;28;20041;-74
2023/08/15 05:13:22;;;;;;;6.85;3.70;;;20.10;71.30;;;;;;5036373;28;20060;-74
2023/08/15 05:15:48;;;;;;;7.22;3.00;;;20.10;71.40;;;;;;5036815;28;20047;-74
2023/08/15 05:18:15;;;;;;;6.03;3.67;;;20.10;71.30;;;;;;5019867;28;20043;-74
2023/08/15 05:20:42;;;;;;;7.13;4.05;;;20.10;71.40;;;;;;5003763;28;20037;-75
2023/08/15 05:23:07;;;;;;;5.63;3.40;;;20.10;71.70;;;;;;5036043;28;20049;-75
2023/08/15 05:25:33;;;;;;;6.15;3.20;;;20.10;71.80;;;;;;5019920;28;20056;-74
2023/08/15 05:28:05;;;;;;;6.93;3.83;;;20.10;71.90;;;;;;5036150;28;20048;-74
2023/08/15 05:30:31;;;;;;;5.63;3.63;;;20.10;72.10;;;;;;5036183;28;20068;-75
2023/08/15 05:32:58;;;;;;;8.48;3.65;;;20.10;72.20;;;;;;5019871;28;20136;-75
2023/08/15 05:35:24;;;;;;;6.63;3.60;;;20.10;72.30;;;;;;5036149;28;20069;-75
2023/08/15 05:37:49;;;;;;;4.68;2.92;;;20.00;72.20;;;;;;5036161;28;20461;-75
2023/08/15 05:40:15;;;;;;;4.82;3.28;;;20.00;72.10;;;;;;5003149;28;20044;-75
2023/08/15 05:42:41;;;;;;;5.93;3.33;;;20.00;72.20;;;;;;5036344;28;20045;-75
2023/08/15 05:45:08;;;;;;;5.20;3.30;;;20.00;72.30;;;;;;5019345;28;20515;-75
2023/08/15 05:47:34;;;;;;;7.10;3.25;;;20.00;72.30;;;;;;5035912;28;20040;-74
2023/08/15 05:50:00;;;;;;;5.35;3.50;;;20.00;72.40;;;;;;5035907;28;20392;-75
2023/08/15 05:52:27;;;;;;;8.00;3.92;;;20.00;72.40;;;;;;5019525;28;20037;-75
2023/08/15 05:54:53;;;;;;;7.50;3.20;;;20.00;72.70;;;;;;5035696;28;20048;-75
2023/08/15 05:57:19;;;;;;;10.10;4.20;;;20.00;72.70;;;;;;5035158;28;20499;-75
2023/08/15 05:59:45;;;;;;;8.13;4.82;;;20.00;72.80;;;;;;5019047;28;20047;-75
2023/08/15 06:02:11;;;;;;;8.05;3.80;;;20.00;73.80;;;;;;5018998;28;20048;-74
2023/08/15 06:04:37;;;;;;;5.88;3.85;;;20.10;74.60;;;;;;5035319;28;20072;-75
2023/08/15 06:07:03;;;;;;;8.52;4.35;;;20.20;75.20;;;;;;5002993;28;20128;-75
2023/08/15 06:09:29;;;;;;;7.40;4.03;;;20.50;75.20;;;;;;5035388;28;20127;-75
2023/08/15 06:11:54;;;;;;;6.50;3.53;;;20.70;74.50;;;;;;5035521;28;20114;-75
2023/08/15 06:14:20;;;;;;;8.65;3.63;;;20.90;73.80;;;;;;5035498;28;20044;-75
2023/08/15 06:16:46;;;;;;;9.13;3.80;;;21.20;73.80;;;;;;5035341;28;20041;-75
2023/08/15 06:19:12;;;;;;;7.53;3.22;;;21.50;73.50;;;;;;5019298;28;20045;-75
2023/08/15 06:21:41;;;;;;;7.28;3.72;;;21.90;72.80;;;;;;5018936;28;20500;-75
2023/08/15 06:24:10;;;;;;;8.63;3.33;;;22.20;72.00;;;;;;5019175;28;20102;-75
2023/08/15 06:26:37;;;;;;;7.28;3.03;;;22.70;70.80;;;;;;5035674;28;20392;-75
2023/08/15 06:29:04;;;;;;;6.32;3.03;;;23.10;68.90;;;;;;5002469;28;20127;-75
2023/08/15 06:31:30;;;;;;;6.03;3.17;;;23.50;67.40;;;;;;5018971;28;20106;-75
2023/08/15 06:33:56;;;;;;;7.10;2.78;;;23.80;66.30;;;;;;5018811;28;20485;-75
2023/08/15 06:36:22;;;;;;;7.95;2.58;;;24.20;65.50;;;;;;5035070;28;20569;-75
2023/08/15 06:38:51;;;;;;;6.82;2.58;;;24.60;64.40;;;;;;5018695;28;20076;-75
2023/08/15 06:41:17;;;;;;;5.03;2.20;;;25.00;63.20;;;;;;5018663;28;20040;-74
2023/08/15 06:43:44;;;;;;;7.07;2.88;;;25.40;61.90;;;;;;5035199;28;20048;-74
2023/08/15 06:46:13;;;;;;;6.75;2.45;;;25.80;61.10;;;;;;5035020;28;20041;-74
2023/08/15 06:48:39;;;;;;;6.47;2.85;;;26.10;60.40;;;;;;5034962;28;20049;-75
2023/08/15 06:51:05;;;;;;;5.97;2.08;;;26.50;59.90;;;;;;5018646;28;20377;-74
2023/08/15 06:53:31;;;;;;;5.72;2.33;;;26.80;59.00;;;;;;5018410;28;20395;-74
2023/08/15 06:55:57;;;;;;;5.97;3.05;;;27.10;58.20;;;;;;5034985;28;20041;-75
2023/08/15 06:58:22;;;;;;;7.32;2.70;;;27.30;57.50;;;;;;5034735;28;20029;-74
2023/08/15 07:00:48;;;;;;;7.80;2.38;;;27.40;56.90;;;;;;5034876;28;20097;-75
2023/08/15 07:03:15;;;;;;;10.20;2.42;;;27.50;56.40;;;;;;5018423;28;20040;-74
2023/08/15 07:05:41;;;;;;;5.88;2.50;;;27.60;56.10;;;;;;5035125;28;20064;-74
2023/08/15 07:08:07;;;;;;;6.57;2.67;;;27.70;55.60;;;;;;5018262;28;20049;-75
2023/08/15 07:10:35;;;;;;;6.05;2.03;;;27.70;55.40;;;;;;5021343;28;20147;-75
2023/08/15 07:13:01;;;;;;;5.65;2.10;;;27.70;55.00;;;;;;5038664;28;20037;-75
2023/08/15 07:15:26;;;;;;;7.88;2.45;;;27.70;54.90;;;;;;5022338;28;20094;-75
2023/08/15 07:17:52;;;;;;;5.63;1.85;;;27.70;54.70;;;;;;5038717;28;20051;-75
2023/08/15 07:20:18;;;;;;;4.97;2.00;;;27.60;54.90;;;;;;5022381;28;20408;-75
2023/08/15 07:22:43;;;;;;;5.10;2.00;;;27.60;54.70;;;;;;5005884;28;20048;-75
2023/08/15 07:25:10;;;;;;;6.85;2.28;;;27.50;54.50;;;;;;5038643;28;20117;-75
2023/08/15 07:27:36;;;;;;;8.20;2.40;;;27.40;54.70;;;;;;5022518;28;20049;-75
2023/08/15 07:30:03;;;;;;;8.38;2.83;;;27.20;55.00;;;;;;5038279;28;20501;-76
2023/08/15 07:32:28;;;;;;;7.85;2.65;;;27.10;55.40;;;;;;5022224;28;20037;-75
2023/08/15 07:34:55;;;;;;;7.32;2.30;;;27.10;55.70;;;;;;5002567;28;20091;-75
2023/08/15 07:37:21;;;;;;;6.55;2.20;;;26.90;55.90;;;;;;5018643;28;20120;-75
2023/08/15 07:40:05;;;;;;;5.55;1.95;;;26.90;56.10;;;;;;5002071;28;20132;-75
2023/08/15 07:42:31;;;;;;;6.93;2.30;;;26.80;55.80;;;;;;5034872;28;20049;-75
2023/08/15 07:44:58;;;;;;;6.05;1.80;;;26.60;55.90;;;;;;5038385;28;20053;-75
2023/08/15 07:47:24;;;;;;;5.18;1.77;;;26.50;56.10;;;;;;5038096;28;20572;-75
2023/08/15 07:50:10;;;;;;;5.68;2.33;;;26.40;56.20;;;;;;5021623;28;20127;-75
2023/08/15 07:52:35;;;;;;;6.97;2.30;;;26.30;56.40;;;;;;5037903;28;20037;-75
2023/08/15 07:55:02;;;;;;;5.63;2.17;;;26.20;56.80;;;;;;5037855;28;20037;-75
2023/08/15 07:57:28;;;;;;;6.93;2.42;;;26.20;56.70;;;;;;5038123;28;20045;-75
2023/08/15 07:59:54;;;;;;;6.97;2.38;;;26.10;57.10;;;;;;5021575;28;20128;-75
2023/08/15 08:02:19;;;;;;;5.85;2.08;;;26.10;57.30;;;;;;5021814;28;20045;-76
2023/08/15 08:04:45;;;;;;;5.95;2.20;;;26.10;57.60;;;;;;5001616;28;20095;-75
2023/08/15 08:07:11;;;;;;;7.85;1.92;;;26.20;57.60;;;;;;5005397;28;20032;-75
2023/08/15 08:09:36;;;;;;;4.70;1.83;;;26.20;57.20;;;;;;5021274;28;20041;-75
2023/08/15 08:12:02;;;;;;;4.93;1.90;;;26.30;56.90;;;;;;5038097;28;20035;-75
2023/08/15 08:14:28;;;;;;;8.27;2.63;;;26.30;57.10;;;;;;5037452;28;20041;-75
2023/08/15 08:16:54;;;;;;;6.93;2.33;;;26.30;56.90;;;;;;5037746;28;20044;-75
2023/08/15 08:19:19;;;;;;;6.22;2.92;;;26.40;57.00;;;;;;5021127;28;20048;-75
2023/08/15 08:21:45;;;;;;;10.63;3.75;;;26.40;57.20;;;;;;5003923;28;20059;-75
2023/08/15 08:24:11;;;;;;;5.57;1.77;;;26.40;57.10;;;;;;5020920;28;20037;-75
2023/08/15 08:26:36;;;;;;;4.20;2.00;;;26.50;56.80;;;;;;5021193;28;20400;-75
2023/08/15 08:29:02;;;;;;;5.00;1.88;;;26.50;56.80;;;;;;5037177;28;20057;-75
2023/08/15 08:31:28;;;;;;;7.47;1.73;;;26.50;56.40;;;;;;5020999;28;20045;-75
2023/08/15 08:33:54;;;;;;;6.13;2.47;;;26.60;56.40;;;;;;5021234;28;20037;-75
2023/08/15 08:36:19;;;;;;;6.20;2.00;;;26.60;56.60;;;;;;5004594;28;20033;-75
2023/08/15 08:38:45;;;;;;;5.53;1.75;;;26.70;56.90;;;;;;5037402;28;20041;-75
2023/08/15 08:41:12;;;;;;;5.55;2.08;;;26.90;57.00;;;;;;5021000;28;20045;-76
2023/08/15 08:43:37;;;;;;;3.10;1.60;;;27.10;56.60;;;;;;5037122;28;20049;-75
2023/08/15 08:46:04;;;;;;;4.60;2.10;;;27.20;56.00;;;;;;5020592;28;20052;-75
2023/08/15 08:48:31;;;;;;;3.80;2.15;;;27.40;55.00;;;;;;5037368;28;20041;-75
2023/08/15 08:50:57;;;;;;;6.65;2.35;;;27.50;54.70;;;;;;5037106;28;20116;-75
2023/08/15 08:53:23;;;;;;;4.18;2.05;;;27.60;54.50;;;;;;5004063;28;20425;-75
2023/08/15 08:55:50;;;;;;;5.80;2.78;;;27.60;54.00;;;;;;5020826;28;20060;-75
2023/08/15 08:58:16;;;;;;;4.63;2.25;;;27.70;54.00;;;;;;5020683;28;20416;-75
2023/08/15 09:00:42;;;;;;;5.65;2.70;;;27.70;53.90;;;;;;5036967;28;20041;-75
2023/08/15 09:03:09;;;;;;;7.65;2.67;;;27.70;53.70;;;;;;5017835;28;20079;-75
2023/08/15 09:05:36;;;;;;;5.57;2.35;;;27.70;53.60;;;;;;5020567;28;20049;-75
2023/08/15 09:08:02;;;;;;;4.93;2.15;;;27.70;53.80;;;;;;5020215;28;20048;-75
2023/08/15 09:10:28;;;;;;;4.00;2.30;;;27.70;53.70;;;;;;5036679;28;20488;-75
2023/08/15 09:13:03;;;;;;;8.32;3.20;;;27.70;53.90;;;;;;5036994;28;20048;-75
2023/08/15 09:15:29;;;;;;;5.82;2.78;;;27.70;53.70;;;;;;5017034;28;20041;-75
2023/08/15 09:18:00;;;;;;;4.47;2.30;;;27.60;53.40;;;;;;5016797;28;20508;-75
2023/08/15 09:20:26;;;;;;;4.43;2.40;;;27.60;53.20;;;;;;5000324;28;20042;-75
2023/08/15 09:22:58;;;;;;;5.22;2.30;;;27.50;53.30;;;;;;5016737;28;20041;-75
2023/08/15 09:25:27;;;;;;;4.03;2.23;;;27.40;53.10;;;;;;5052672;28;20048;-75
2023/08/15 09:27:53;;;;;;;4.75;2.13;;;27.40;53.30;;;;;;5036715;28;20274;-75
2023/08/15 09:30:20;;;;;;;5.60;2.35;;;27.30;53.20;;;;;;5019771;28;20057;-75
2023/08/15 09:32:46;;;;;;;4.35;1.70;;;27.30;53.20;;;;;;5036266;28;20081;-75
2023/08/15 09:35:14;;;;;;;6.43;1.88;;;27.20;53.80;;;;;;5036121;28;20040;-74
2023/08/15 09:37:47;;;;;;;7.80;2.60;;;27.20;53.80;;;;;;5036200;28;20483;-75
2023/08/15 09:40:22;;;;;;;5.85;2.03;;;27.20;53.70;;;;;;5036354;28;20553;-75
2023/08/15 09:42:48;;;;;;;5.22;2.08;;;27.10;53.70;;;;;;5035844;28;20045;-75
2023/08/15 09:45:16;;;;;;;5.85;2.10;;;27.10;53.90;;;;;;5019547;28;20420;-75
2023/08/15 09:47:43;;;;;;;4.97;2.10;;;27.00;53.80;;;;;;5019491;28;20121;-75
2023/08/15 09:50:11;;;;;;;4.15;1.70;;;27.00;54.00;;;;;;5019732;28;20098;-75
2023/08/15 09:52:43;;;;;;;5.47;1.83;;;27.00;53.70;;;;;;5019347;28;20051;-75
2023/08/15 09:55:11;;;;;;;5.28;1.70;;;27.00;53.90;;;;;;5019406;28;20090;-75
2023/08/15 09:57:38;;;;;;;4.45;1.85;;;27.00;53.80;;;;;;5019474;28;20036;-75
2023/08/15 10:00:08;;;;;;;5.68;2.00;;;27.10;53.80;;;;;;5019379;28;20519;-75
2023/08/15 10:02:42;;;;;;;5.53;2.13;;;27.10;54.00;;;;;;5019312;28;20124;-75
2023/08/15 10:05:11;;;;;;;2.88;1.48;;;27.10;54.00;;;;;;5035471;28;20453;-75
2023/08/15 10:07:37;;;;;;;7.32;2.22;;;27.10;53.90;;;;;;5018998;28;20051;-74
2023/08/15 10:10:04;;;;;;;6.07;2.03;;;27.10;54.00;;;;;;5033921;28;20079;-75
2023/08/15 10:12:34;;;;;;;6.50;2.13;;;27.10;54.00;;;;;;5031798;28;20036;-75
2023/08/15 10:15:01;;;;;;;5.18;2.17;;;27.10;53.40;;;;;;5035681;28;20048;-75
2023/08/15 10:17:29;;;;;;;4.57;1.80;;;27.10;53.40;;;;;;5018904;28;20563;-75
2023/08/15 10:20:10;;;;;;;4.32;1.52;;;27.10;53.50;;;;;;5035689;28;20526;-75
2023/08/15 10:22:38;;;;;;;4.63;1.75;;;27.10;53.50;;;;;;5034283;28;20514;-75
2023/08/15 10:25:40;;;;;;;5.32;1.90;;;27.10;53.40;;;;;;5018467;28;20044;-75
2023/08/15 10:28:11;;;;;;;5.00;1.98;;;27.00;53.60;;;;;;4937171;29;20138;-75
2023/08/15 10:30:50;;;;;;;5.78;1.95;;;27.00;53.60;;;;;;5002361;28;20056;-75
2023/08/15 10:33:18;;;;;;;5.43;1.92;;;26.90;53.70;;;;;;5013078;28;20113;-75
2023/08/15 10:35:55;;;;;;;7.50;2.95;;;26.90;53.90;;;;;;5026750;28;20456;-75
2023/08/15 10:38:54;;;;;;;5.40;2.53;;;26.90;54.50;;;;;;5028517;28;20039;-75
2023/08/15 10:41:19;;;;;;;5.38;2.15;;;26.80;55.20;;;;;;4974326;28;20464;-75
2023/08/15 10:43:54;;;;;;;6.10;2.25;;;26.80;55.20;;;;;;5026808;28;20075;-75
2023/08/15 10:46:27;;;;;;;5.88;2.17;;;26.90;55.20;;;;;;5028648;28;20040;-75
2023/08/15 10:48:55;;;;;;;4.90;1.90;;;27.00;54.80;;;;;;5025321;28;20092;-75
2023/08/15 10:51:23;;;;;;;5.60;1.83;;;26.90;54.50;;;;;;4994904;28;20094;-75
2023/08/15 10:53:49;;;;;;;6.97;2.92;;;27.00;54.50;;;;;;5028425;28;20043;-75
2023/08/15 10:56:23;;;;;;;5.72;2.00;;;27.00;54.60;;;;;;5028831;28;20045;-75
2023/08/15 10:58:49;;;;;;;;;;;27.00;54.80;;;;;;5027742;28;20045;-75
2023/08/15 11:01:19;;;;;;;5.90;2.45;;;27.00;55.00;;;;;;5011547;28;19925;-75
2023/08/15 11:03:48;;;;;;;4.93;2.03;;;27.00;54.80;;;;;;5011189;28;20041;-75
2023/08/15 11:06:14;;;;;;;4.75;2.20;;;27.00;54.70;;;;;;5027059;28;20507;-75
2023/08/15 11:08:45;;;;;;;5.65;1.80;;;26.90;54.60;;;;;;4995533;28;20033;-75
2023/08/15 11:11:11;;;;;;;4.07;1.65;;;26.90;54.80;;;;;;5012458;28;20056;-75
2023/08/15 11:13:42;;;;;;;5.15;2.13;;;26.90;55.10;;;;;;5010974;28;21589;-75
2023/08/15 11:16:08;;;;;;;5.30;2.10;;;26.90;55.40;;;;;;5009773;28;20480;-75
2023/08/15 11:18:38;;;;;;;4.13;1.60;;;26.80;55.60;;;;;;5011330;28;20041;-75
2023/08/15 11:21:08;;;;;;;8.93;2.40;;;26.80;56.20;;;;;;5012001;28;20041;-75
2023/08/15 11:23:34;;;;;;;4.97;1.80;;;26.80;55.80;;;;;;5027734;28;20029;-75
2023/08/15 11:26:07;;;;;;;4.35;2.10;;;26.70;55.40;;;;;;5011356;28;20052;-74
2023/08/15 11:28:34;;;;;;;4.28;1.70;;;26.70;55.80;;;;;;5027205;28;20036;-75
2023/08/15 11:31:02;;;;;;;6.45;2.08;;;26.70;56.20;;;;;;5011444;28;20053;-74
2023/08/15 11:33:31;;;;;;;3.80;2.00;;;26.70;56.10;;;;;;5026510;28;20487;-75
2023/08/15 11:36:01;;;;;;;5.72;1.73;;;26.70;56.50;;;;;;5027605;28;20052;-75
2023/08/15 11:38:28;;;;;;;5.38;2.05;;;26.80;56.40;;;;;;5010135;28;20040;-75
2023/08/15 11:40:59;;;;;;;4.93;2.20;;;26.80;56.20;;;;;;5026743;28;20368;-74
2023/08/15 11:43:25;;;;;;;5.13;2.05;;;26.90;56.40;;;;;;5026986;28;20069;-75
2023/08/15 11:45:51;;;;;;;4.97;1.95;;;26.90;56.20;;;;;;5011043;28;20082;-75
2023/08/15 11:48:18;;;;;;;3.92;1.70;;;26.90;55.80;;;;;;5010245;28;20041;-75
2023/08/15 11:50:44;;;;;;;5.60;2.25;;;27.00;55.60;;;;;;5027432;28;20366;-75
2023/08/15 11:53:14;;;;;;;7.88;2.63;;;27.10;55.20;;;;;;5027297;28;20048;-75
2023/08/15 11:55:40;;;;;;;5.40;1.80;;;27.10;55.00;;;;;;5027654;28;20112;-75
2023/08/15 11:58:32;;;;;;;4.70;2.08;;;27.10;54.90;;;;;;5031064;28;20492;-74
2023/08/15 12:01:05;;;;;;;4.95;2.33;;;27.10;54.80;;;;;;5031662;28;20067;-74
2023/08/15 12:03:31;;;;;;;5.05;1.95;;;27.20;54.90;;;;;;5030434;28;20484;-74
2023/08/15 12:05:58;;;;;;;4.03;2.00;;;27.20;54.90;;;;;;5031396;28;20047;-74
2023/08/15 12:08:26;;;;;;;4.25;1.50;;;27.20;54.80;;;;;;5030901;28;20036;-74
2023/08/15 12:10:54;;;;;;;3.53;1.30;;;27.20;54.90;;;;;;5031060;28;20086;-74
2023/08/15 12:13:38;;;;;;;5.70;1.98;;;27.20;54.80;;;;;;5030828;28;20044;-74
2023/08/15 12:16:05;;;;;;;4.30;1.90;;;27.20;54.70;;;;;;5031391;28;20059;-74
2023/08/15 12:18:31;;;;;;;4.22;2.20;;;27.20;54.70;;;;;;5015735;28;20163;-74
2023/08/15 12:20:58;;;;;;;4.90;1.95;;;27.10;55.10;;;;;;5031726;28;20067;-74
2023/08/15 12:23:24;;;;;;;4.63;2.10;;;27.10;55.50;;;;;;5031425;28;20480;-74
2023/08/15 12:25:49;;;;;;;5.53;2.08;;;27.20;55.40;;;;;;4998815;28;20044;-74
2023/08/15 12:28:17;;;;;;;4.25;2.00;;;27.20;55.40;;;;;;5031337;28;20426;-74
2023/08/15 12:30:43;;;;;;;5.65;2.25;;;27.30;55.20;;;;;;5031069;28;20408;-74
2023/08/15 12:33:08;;;;;;;3.58;1.83;;;27.30;55.00;;;;;;4987231;28;20028;-74
2023/08/15 12:35:34;;;;;;;5.07;1.98;;;27.30;54.90;;;;;;5014975;28;20036;-74
2023/08/15 12:38:00;;;;;;;5.28;2.20;;;27.30;55.00;;;;;;4998386;28;20032;-74
2023/08/15 12:40:26;;;;;;;3.03;1.88;;;27.40;55.10;;;;;;5031300;28;20059;-74
2023/08/15 12:42:52;;;;;;;2.92;1.50;;;27.40;55.10;;;;;;5031461;28;21369;-74
2023/08/15 12:45:17;;;;;;;5.88;2.58;;;27.40;54.90;;;;;;5031183;28;20052;-74
2023/08/15 12:47:43;;;;;;;5.05;1.92;;;27.40;54.70;;;;;;5030852;28;20047;-74